createdAt,value
2019-04-16T00:00:34.972Z,83.60
2019-04-16T00:03:02.446Z,83.20
2019-04-16T00:05:37.390Z,83.00
2019-04-16T00:08:26.602Z,82.80
2019-04-16T00:11:15.382Z,82.90
2019-04-16T00:14:11.574Z,82.20
2019-04-16T00:16:41.349Z,82.60
2019-04-16T00:19:08.181Z,82.20
2019-04-16T00:21:55.527Z,82.20
2019-04-16T00:24:31.254Z,82.40
2019-04-16T00:27:00.016Z,81.90
2019-04-16T00:29:27.518Z,82.00
2019-04-16T00:32:14.502Z,82.40
2019-04-16T00:34:44.481Z,82.30
2019-04-16T00:37:11.077Z,82.40
2019-04-16T00:39:38.510Z,82.30
2019-04-16T00:42:06.511Z,83.30
2019-04-16T00:44:33.916Z,82.40
2019-04-16T00:47:01.372Z,81.90
2019-04-16T00:49:28.758Z,82.20
2019-04-16T00:51:56.149Z,82.70
2019-04-16T00:54:24.126Z,82.30
2019-04-16T00:56:51.546Z,82.00
2019-04-16T00:59:21.425Z,81.70
2019-04-16T01:01:48.358Z,81.70
2019-04-16T01:04:15.767Z,81.80
2019-04-16T01:06:43.162Z,81.30
2019-04-16T01:09:10.743Z,81.10
2019-04-16T01:11:38.134Z,81.10
2019-04-16T01:14:05.566Z,81.10
2019-04-16T01:16:33.604Z,81.20
2019-04-16T01:19:01.133Z,81.50
2019-04-16T01:21:28.526Z,81.10
2019-04-16T01:23:55.957Z,81.30
2019-04-16T01:26:24.221Z,81.20
2019-04-16T01:29:02.937Z,81.10
2019-04-16T01:31:39.474Z,81.10
2019-04-16T01:34:38.456Z,80.80
2019-04-16T01:37:34.506Z,81.10
2019-04-16T01:40:04.002Z,80.90
2019-04-16T01:42:31.413Z,80.80
2019-04-16T01:44:59.915Z,80.70
2019-04-16T01:47:28.222Z,80.70
2019-04-16T01:49:57.150Z,80.70
2019-04-16T01:52:24.588Z,80.60
2019-04-16T01:54:54.766Z,80.80
2019-04-16T01:57:21.221Z,80.80
2019-04-16T01:59:48.630Z,80.70
2019-04-16T02:02:16.063Z,80.50
2019-04-16T02:04:43.454Z,80.80
2019-04-16T02:07:10.857Z,80.40
2019-04-16T02:09:38.318Z,80.50
2019-04-16T02:12:05.756Z,79.60
2019-04-16T02:14:33.097Z,79.60
2019-04-16T02:17:00.643Z,79.20
2019-04-16T02:19:32.267Z,79.50
2019-04-16T02:21:57.270Z,79.20
2019-04-16T02:24:24.974Z,79.30
2019-04-16T02:26:54.815Z,79.20
2019-04-16T02:29:21.566Z,79.20
2019-04-16T02:31:51.568Z,79.60
2019-04-16T02:34:18.611Z,79.20
2019-04-16T02:36:46.007Z,79.40
2019-04-16T02:39:13.438Z,79.40
2019-04-16T02:41:41.620Z,79.40
2019-04-16T02:44:14.195Z,79.60
2019-04-16T02:46:38.630Z,79.50
2019-04-16T02:49:06.083Z,79.50
2019-04-16T02:51:55.831Z,79.80
2019-04-16T02:54:48.701Z,79.60
2019-04-16T02:57:28.222Z,79.30
2019-04-16T02:59:57.008Z,79.30
2019-04-16T03:02:45.670Z,79.60
2019-04-16T03:05:26.488Z,80.30
2019-04-16T03:07:55.261Z,79.80
2019-04-16T03:10:22.654Z,79.60
2019-04-16T03:12:52.140Z,79.40
2019-04-16T03:15:39.410Z,79.40
2019-04-16T03:18:06.843Z,79.30
2019-04-16T03:20:34.233Z,79.30
2019-04-16T03:23:05.297Z,79.50
2019-04-16T03:25:30.914Z,79.40
2019-04-16T03:27:58.307Z,79.40
2019-04-16T03:30:25.897Z,79.50
2019-04-16T03:32:53.276Z,79.40
2019-04-16T03:35:25.534Z,79.50
2019-04-16T03:37:49.931Z,79.40
2019-04-16T03:40:18.884Z,80.30
2019-04-16T03:42:46.694Z,79.40
2019-04-16T03:45:14.962Z,79.40
2019-04-16T03:47:42.367Z,79.30
2019-04-16T03:50:10.046Z,79.20
2019-04-16T03:52:40.883Z,79.60
2019-04-16T03:55:06.709Z,79.50
2019-04-16T03:57:34.110Z,79.70
2019-04-16T04:00:01.678Z,79.90
2019-04-16T04:02:29.188Z,79.90
2019-04-16T04:04:57.578Z,79.90
2019-04-16T04:07:25.917Z,79.50
2019-04-16T04:09:54.454Z,79.70
2019-04-16T04:12:22.525Z,79.80
2019-04-16T04:14:51.287Z,79.60
2019-04-16T04:17:19.184Z,79.50
2019-04-16T04:19:46.911Z,80.50
2019-04-16T04:22:14.565Z,79.80
2019-04-16T04:24:41.954Z,79.70
2019-04-16T04:27:13.085Z,79.80
2019-04-16T04:29:38.570Z,79.70
2019-04-16T04:32:05.963Z,79.70
2019-04-16T04:34:33.361Z,79.90
2019-04-16T04:37:00.850Z,80.20
2019-04-16T04:39:28.230Z,79.80
2019-04-16T04:41:56.446Z,80.10
2019-04-16T04:44:24.567Z,79.80
2019-04-16T04:46:53.279Z,80.00
2019-04-16T04:49:20.637Z,80.10
2019-04-16T04:51:48.205Z,80.00
2019-04-16T04:54:15.600Z,80.00
2019-04-16T04:56:43.002Z,79.70
2019-04-16T04:59:10.610Z,79.50
2019-04-16T05:01:37.998Z,79.40
2019-04-16T05:04:20.877Z,80.10
2019-04-16T05:06:48.857Z,79.10
2019-04-16T05:09:16.282Z,79.10
2019-04-16T05:11:44.089Z,79.00
2019-04-16T05:14:11.488Z,78.90
2019-04-16T05:16:38.890Z,79.10
2019-04-16T05:19:06.350Z,79.00
2019-04-16T05:21:33.811Z,78.90
2019-04-16T05:24:01.241Z,78.70
2019-04-16T05:26:28.674Z,78.70
2019-04-16T05:29:10.326Z,78.70
2019-04-16T05:31:39.414Z,78.20
2019-04-16T05:34:06.832Z,78.10
2019-04-16T05:36:34.231Z,78.10
2019-04-16T05:39:03.669Z,77.70
2019-04-16T05:41:30.885Z,77.90
2019-04-16T05:44:01.766Z,77.80
2019-04-16T05:46:27.844Z,77.40
2019-04-16T05:48:55.238Z,77.20
2019-04-16T05:51:22.814Z,76.90
2019-04-16T05:53:53.047Z,76.80
2019-04-16T05:56:31.014Z,77.10
2019-04-16T05:58:59.667Z,76.80
2019-04-16T06:01:46.187Z,76.40
2019-04-16T06:04:13.654Z,76.60
2019-04-16T06:06:41.058Z,75.80
2019-04-16T06:09:11.879Z,75.10
2019-04-16T06:11:38.558Z,75.40
2019-04-16T06:14:17.561Z,75.70
2019-04-16T06:17:05.607Z,75.80
2019-04-16T06:19:51.222Z,74.40
2019-04-16T06:22:30.502Z,75.20
2019-04-16T06:25:16.055Z,73.90
2019-04-16T06:28:02.967Z,74.00
2019-04-16T06:30:58.966Z,73.90
2019-04-16T06:33:45.888Z,73.80
2019-04-16T06:36:40.074Z,74.00
2019-04-16T06:39:30.640Z,72.80
2019-04-16T06:42:15.171Z,72.30
2019-04-16T06:44:54.858Z,71.40
2019-04-16T06:47:44.782Z,72.40
2019-04-16T06:50:31.876Z,71.40
2019-04-16T06:53:14.323Z,71.60
2019-04-16T06:55:54.640Z,71.20
2019-04-16T07:01:07.312Z,70.40
2019-04-16T07:01:41.666Z,70.40
2019-04-16T07:03:59.565Z,70.10
2019-04-16T07:07:08.022Z,69.70
2019-04-16T07:09:41.738Z,70.80
2019-04-16T07:12:15.333Z,68.70
2019-04-16T07:14:45.553Z,68.70
2019-04-16T07:17:12.100Z,69.00
2019-04-16T07:19:42.229Z,68.20
2019-04-16T07:22:08.893Z,68.70
2019-04-16T07:24:37.782Z,68.90
2019-04-16T07:27:05.826Z,68.10
2019-04-16T07:30:06.794Z,67.60
2019-04-16T07:32:52.175Z,66.90
2019-04-16T07:35:50.932Z,67.20
2019-04-16T07:38:23.934Z,66.30
2019-04-16T07:41:12.133Z,65.30
2019-04-16T07:43:57.654Z,66.50
2019-04-16T07:46:50.292Z,65.80
2019-04-16T07:49:37.436Z,63.70
2019-04-16T07:52:24.341Z,64.90
2019-04-16T07:55:10.555Z,64.40
2019-04-16T07:57:37.983Z,64.00
2019-04-16T08:00:09.291Z,64.50
2019-04-16T08:02:36.338Z,64.40
2019-04-16T08:05:07.452Z,62.80
2019-04-16T08:07:33.667Z,63.50
2019-04-16T08:10:02.803Z,62.20
2019-04-16T08:12:31.091Z,61.90
2019-04-16T08:15:12.522Z,62.80
2019-04-16T08:17:28.026Z,60.00
2019-04-16T08:19:56.042Z,60.90
2019-04-16T08:22:23.561Z,61.20
2019-04-16T08:24:59.652Z,61.80
2019-04-16T08:27:25.126Z,61.20
2019-04-16T08:29:52.536Z,60.20
2019-04-16T08:32:19.966Z,60.10
2019-04-16T08:34:48.493Z,59.00
2019-04-16T08:37:16.366Z,58.60
2019-04-16T08:39:43.764Z,58.10
2019-04-16T08:42:11.159Z,58.80
2019-04-16T08:44:38.752Z,59.00
2019-04-16T08:47:11.479Z,57.50
2019-04-16T08:49:35.645Z,57.40
2019-04-16T08:52:03.295Z,57.70
2019-04-16T08:54:30.699Z,57.70
2019-04-16T08:56:58.098Z,57.60
2019-04-16T08:59:25.552Z,55.80
2019-04-16T09:01:54.370Z,56.10
2019-04-16T09:04:22.160Z,55.70
2019-04-16T09:06:49.937Z,55.70
2019-04-16T09:09:25.615Z,55.40
2019-04-16T09:11:56.487Z,55.00
2019-04-16T09:14:26.078Z,53.30
2019-04-16T09:17:05.138Z,54.70
2019-04-16T09:19:32.542Z,54.10
2019-04-16T09:21:59.938Z,54.90
2019-04-16T09:24:33.899Z,53.00
2019-04-16T09:27:13.509Z,53.60
2019-04-16T09:30:01.590Z,53.20
2019-04-16T09:32:43.229Z,51.40
2019-04-16T09:35:23.374Z,52.50
2019-04-16T09:38:09.347Z,48.70
2019-04-16T09:41:12.853Z,50.80
2019-04-16T09:43:45.426Z,50.10
2019-04-16T09:46:21.595Z,50.80
2019-04-16T09:48:42.897Z,50.70
2019-04-16T09:51:10.291Z,50.90
2019-04-16T09:53:40.404Z,50.00
2019-04-16T09:56:28.432Z,49.00
2019-04-16T09:58:54.777Z,49.60
2019-04-16T10:01:24.469Z,47.00
2019-04-16T10:03:53.770Z,45.40
2019-04-16T10:06:21.285Z,45.80
2019-04-16T10:08:48.671Z,43.20
2019-04-16T10:11:18.550Z,43.00
2019-04-16T10:13:45.293Z,45.40
2019-04-16T10:16:14.331Z,43.40
2019-04-16T10:18:41.930Z,37.50
2019-04-16T10:21:09.348Z,40.60
2019-04-16T10:24:03.173Z,41.50
2019-04-16T10:26:30.595Z,41.50
2019-04-16T10:28:59.509Z,40.70
2019-04-16T10:31:27.197Z,41.10
2019-04-16T10:33:54.581Z,38.10
2019-04-16T10:36:22.042Z,38.10
2019-04-16T10:39:07.797Z,39.60
2019-04-16T10:41:57.473Z,39.70
2019-04-16T10:44:44.311Z,40.30
2019-04-16T10:47:30.360Z,41.20
2019-04-16T10:50:23.884Z,40.60
2019-04-16T10:53:09.255Z,40.90
2019-04-16T10:55:48.370Z,42.20
2019-04-16T10:58:28.667Z,40.40
2019-04-16T11:01:04.035Z,39.30
2019-04-16T11:03:50.951Z,37.80
2019-04-16T11:06:28.479Z,38.10
2019-04-16T11:08:55.865Z,38.30
2019-04-16T11:11:23.292Z,38.10
2019-04-16T11:13:59.660Z,38.30
2019-04-16T11:16:20.898Z,38.10
2019-04-16T11:18:48.400Z,38.60
2019-04-16T11:21:15.895Z,37.60
2019-04-16T11:23:43.270Z,38.80
2019-04-16T11:26:10.869Z,36.50
2019-04-16T11:28:38.278Z,37.60
2019-04-16T11:31:09.966Z,36.30
2019-04-16T11:33:37.577Z,36.80
2019-04-16T11:36:17.357Z,35.30
2019-04-16T11:38:34.302Z,34.50
2019-04-16T11:41:01.716Z,35.20
2019-04-16T11:43:29.178Z,34.60
2019-04-16T11:45:56.823Z,34.60
2019-04-16T11:48:24.447Z,35.60
2019-04-16T11:50:51.848Z,34.80
2019-04-16T11:53:19.245Z,34.40
2019-04-16T11:55:46.655Z,34.10
2019-04-16T11:58:39.571Z,34.00
2019-04-16T12:01:24.281Z,34.40
2019-04-16T12:04:02.055Z,35.50
2019-04-16T12:06:43.821Z,35.60
2019-04-16T12:09:29.664Z,33.50
2019-04-16T12:12:02.186Z,33.30
2019-04-16T12:14:54.929Z,33.60
2019-04-16T12:17:36.324Z,35.00
2019-04-16T12:20:16.662Z,34.30
2019-04-16T12:22:53.149Z,33.90
2019-04-16T12:25:33.420Z,32.50
2019-04-16T12:28:42.183Z,33.30
2019-04-16T12:31:16.843Z,34.20
2019-04-16T12:34:02.253Z,32.90
2019-04-16T12:36:52.205Z,33.10
2019-04-16T12:39:48.206Z,33.50
2019-04-16T12:42:22.650Z,33.00
2019-04-16T12:44:52.018Z,34.10
2019-04-16T12:47:45.462Z,32.90
2019-04-16T12:50:32.654Z,33.80
2019-04-16T12:53:04.259Z,33.50
2019-04-16T12:56:08.418Z,33.20
2019-04-16T12:58:50.762Z,34.00
2019-04-16T13:01:37.236Z,33.70
2019-04-16T13:04:16.405Z,34.20
2019-04-16T13:06:58.138Z,33.70
2019-04-16T13:09:43.829Z,34.30
2019-04-16T13:12:33.289Z,33.00
2019-04-16T13:15:15.571Z,32.00
2019-04-16T13:18:11.106Z,31.60
2019-04-16T13:21:04.060Z,31.60
2019-04-16T13:23:36.910Z,31.70
2019-04-16T13:26:12.840Z,31.40
2019-04-16T13:28:38.662Z,31.40
2019-04-16T13:31:06.070Z,31.00
2019-04-16T13:33:33.556Z,31.60
2019-04-16T13:36:00.949Z,31.10
2019-04-16T13:38:29.447Z,32.20
2019-04-16T13:40:57.003Z,30.60
2019-04-16T13:43:28.885Z,31.10
2019-04-16T13:45:58.181Z,29.90
2019-04-16T13:48:33.469Z,30.50
2019-04-16T13:51:04.478Z,30.10
2019-04-16T13:53:53.014Z,30.60
2019-04-16T13:56:26.615Z,28.40
2019-04-16T13:59:19.938Z,29.80
2019-04-16T14:01:59.091Z,29.60
2019-04-16T14:04:30.583Z,29.50
2019-04-16T14:06:56.019Z,30.30
2019-04-16T14:09:23.406Z,29.20
2019-04-16T14:11:51.948Z,29.30
2019-04-16T14:14:22.495Z,28.90
2019-04-16T14:16:48.667Z,28.80
2019-04-16T14:19:16.122Z,28.00
2019-04-16T14:21:45.310Z,28.00
2019-04-16T14:24:12.957Z,26.90
2019-04-16T14:26:40.345Z,24.00
2019-04-16T14:29:07.907Z,25.50
2019-04-16T14:31:35.346Z,25.60
2019-04-16T14:34:20.454Z,25.70
2019-04-16T14:36:47.859Z,26.90
2019-04-16T14:39:29.342Z,28.00
2019-04-16T14:41:56.755Z,28.30
2019-04-16T14:44:26.139Z,28.20
2019-04-16T14:46:53.579Z,27.60
2019-04-16T14:49:21.419Z,27.20
2019-04-16T14:51:48.822Z,27.00
2019-04-16T14:54:33.140Z,26.30
2019-04-16T14:57:00.891Z,26.20
2019-04-16T14:59:46.607Z,25.90
2019-04-16T15:02:25.158Z,26.60
2019-04-16T15:05:21.499Z,25.50
2019-04-16T15:08:00.019Z,25.60
2019-04-16T15:10:45.403Z,24.20
2019-04-16T15:13:47.219Z,24.20
2019-04-16T15:16:32.918Z,24.60
2019-04-16T15:19:18.509Z,24.50
2019-04-16T15:22:03.953Z,24.90
2019-04-16T15:24:59.454Z,23.80
2019-04-16T15:27:55.906Z,23.80
2019-04-16T15:30:41.571Z,20.90
2019-04-16T15:33:27.913Z,22.70
2019-04-16T15:35:58.898Z,22.50
2019-04-16T15:38:33.195Z,22.70
2019-04-16T15:41:22.894Z,23.20
2019-04-16T15:44:07.275Z,22.60
2019-04-16T15:46:53.996Z,22.60
2019-04-16T15:49:29.582Z,22.50
2019-04-16T15:52:18.683Z,22.20
2019-04-16T15:55:00.155Z,22.20
2019-04-16T15:57:59.430Z,22.90
2019-04-16T16:00:42.908Z,22.70
2019-04-16T16:03:28.302Z,22.90
2019-04-16T16:06:08.040Z,22.80
2019-04-16T16:08:39.874Z,22.60
2019-04-16T16:11:17.148Z,22.50
2019-04-16T16:13:45.118Z,22.10
2019-04-16T16:16:17.571Z,23.10
2019-04-16T16:18:41.726Z,22.20
2019-04-16T16:21:09.200Z,23.70
2019-04-16T16:23:36.589Z,24.20
2019-04-16T16:26:03.998Z,25.30
2019-04-16T16:28:31.507Z,26.40
2019-04-16T16:30:58.904Z,27.80
2019-04-16T16:33:26.294Z,28.60
2019-04-16T16:35:58.928Z,28.80
2019-04-16T16:38:23.006Z,29.50
2019-04-16T16:40:50.573Z,30.60
2019-04-16T16:43:18.323Z,30.70
2019-04-16T16:46:07.966Z,31.80
2019-04-16T16:48:35.833Z,32.10
2019-04-16T16:51:03.504Z,32.40
2019-04-16T16:53:53.219Z,33.20
2019-04-16T16:56:38.911Z,33.40
2019-04-16T16:59:22.331Z,33.90
2019-04-16T17:01:58.139Z,34.20
2019-04-16T17:04:34.762Z,34.80
2019-04-16T17:07:02.358Z,35.50
2019-04-16T17:09:34.435Z,37.20
2019-04-16T17:12:01.992Z,38.00
2019-04-16T17:14:29.388Z,37.70
2019-04-16T17:17:11.833Z,38.90
2019-04-16T17:19:27.450Z,41.50
2019-04-16T17:21:54.864Z,39.60
2019-04-16T17:24:22.259Z,40.70
2019-04-16T17:26:50.217Z,44.90
2019-04-16T17:29:18.128Z,40.70
2019-04-16T17:31:45.642Z,40.60
2019-04-16T17:34:13.119Z,41.70
2019-04-16T17:36:40.506Z,41.90
2019-04-16T17:39:10.537Z,42.50
2019-04-16T17:41:42.337Z,43.60
2019-04-16T17:44:28.117Z,43.30
2019-04-16T17:47:32.033Z,43.10
2019-04-16T17:50:04.832Z,43.20
2019-04-16T17:52:41.117Z,44.20
2019-04-16T17:55:21.886Z,43.50
2019-04-16T17:57:58.232Z,43.60
2019-04-16T18:00:45.176Z,44.50
2019-04-16T18:03:37.111Z,44.20
2019-04-16T18:06:09.542Z,45.30
2019-04-16T18:08:59.510Z,45.60
2019-04-16T18:11:41.014Z,45.60
2019-04-16T18:14:47.928Z,47.30
2019-04-16T18:17:46.328Z,47.60
2019-04-16T18:20:23.070Z,46.90
2019-04-16T18:23:06.048Z,46.70
2019-04-16T18:26:04.868Z,47.90
2019-04-16T18:28:38.816Z,47.70
2019-04-16T18:31:16.139Z,47.80
2019-04-16T18:33:58.837Z,48.00
2019-04-16T18:36:52.496Z,48.30
2019-04-16T18:39:37.116Z,51.60
2019-04-16T18:42:09.845Z,50.20
2019-04-16T18:44:53.869Z,50.40
2019-04-16T18:47:38.601Z,51.20
2019-04-16T18:50:09.456Z,50.80
2019-04-16T18:52:37.498Z,52.30
2019-04-16T18:55:06.102Z,51.20
2019-04-16T18:57:38.140Z,51.50
2019-04-16T19:00:05.643Z,51.80
2019-04-16T19:02:33.216Z,53.20
2019-04-16T19:05:00.662Z,54.30
2019-04-16T19:07:28.150Z,55.80
2019-04-16T19:09:55.726Z,56.30
2019-04-16T19:12:23.150Z,54.40
2019-04-16T19:14:50.575Z,54.40
2019-04-16T19:17:18.053Z,54.60
2019-04-16T19:19:45.733Z,53.90
2019-04-16T19:22:13.331Z,55.00
2019-04-16T19:24:41.943Z,55.90
2019-04-16T19:27:09.339Z,55.00
2019-04-16T19:29:36.826Z,54.50
2019-04-16T19:32:04.294Z,55.10
2019-04-16T19:34:33.519Z,55.50
2019-04-16T19:37:01.365Z,55.00
2019-04-16T19:39:29.134Z,55.50
2019-04-16T19:41:58.135Z,58.10
2019-04-16T19:44:25.747Z,58.70
2019-04-16T19:46:54.346Z,58.50
2019-04-16T19:49:22.688Z,57.90
2019-04-16T19:51:50.120Z,57.40
2019-04-16T19:54:18.000Z,57.80
2019-04-16T19:56:48.466Z,59.70
2019-04-16T19:59:34.215Z,59.20
2019-04-16T20:02:02.383Z,63.10
2019-04-16T20:04:29.948Z,61.10
2019-04-16T20:07:00.878Z,61.40
2019-04-16T20:09:27.860Z,61.90
2019-04-16T20:11:56.365Z,60.90
2019-04-16T20:14:24.403Z,61.60
2019-04-16T20:16:51.806Z,61.20
2019-04-16T20:19:19.210Z,61.00
2019-04-16T20:21:47.096Z,61.00
2019-04-16T20:24:14.510Z,61.60
2019-04-16T20:26:41.934Z,62.00
2019-04-16T20:29:09.430Z,61.70
2019-04-16T20:31:36.858Z,64.80
2019-04-16T20:34:04.251Z,67.60
2019-04-16T20:36:33.532Z,64.70
2019-04-16T20:39:00.953Z,64.00
2019-04-16T20:41:28.392Z,63.40
2019-04-16T20:43:55.910Z,64.40
2019-04-16T20:46:23.323Z,63.90
2019-04-16T20:49:05.663Z,64.20
2019-04-16T20:51:20.206Z,64.00
2019-04-16T20:53:47.634Z,64.00
2019-04-16T20:56:20.212Z,61.90
2019-04-16T20:58:44.302Z,65.30
2019-04-16T21:01:12.222Z,64.40
2019-04-16T21:03:40.707Z,65.00
2019-04-16T21:06:09.699Z,64.40
2019-04-16T21:08:38.359Z,65.10
2019-04-16T21:11:08.808Z,65.90
2019-04-16T21:13:35.000Z,68.30
2019-04-16T21:16:02.959Z,70.00
2019-04-16T21:18:30.540Z,67.60
2019-04-16T21:20:58.233Z,66.10
2019-04-16T21:23:25.733Z,66.60
2019-04-16T21:25:53.153Z,68.00
2019-04-16T21:28:28.943Z,66.70
2019-04-16T21:31:00.597Z,64.00
2019-04-16T21:33:56.745Z,67.70
2019-04-16T21:36:40.760Z,69.30
2019-04-16T21:39:19.648Z,69.10
2019-04-16T21:41:47.095Z,70.20
2019-04-16T21:44:14.487Z,68.50
2019-04-16T21:46:41.949Z,67.90
2019-04-16T21:49:09.374Z,69.50
2019-04-16T21:51:38.697Z,69.40
2019-04-16T21:54:06.167Z,69.70
2019-04-16T21:56:33.716Z,70.00
2019-04-16T21:59:04.724Z,69.20
2019-04-16T22:01:36.997Z,69.80
2019-04-16T22:04:13.232Z,69.20
2019-04-16T22:06:37.602Z,69.60
2019-04-16T22:09:06.265Z,70.30
2019-04-16T22:11:34.013Z,69.30
2019-04-16T22:14:01.738Z,68.80
2019-04-16T22:16:30.492Z,68.10
2019-04-16T22:18:58.025Z,73.80
2019-04-16T22:21:25.423Z,68.60
2019-04-16T22:23:52.886Z,71.20
2019-04-16T22:26:20.285Z,75.10
2019-04-16T22:28:47.694Z,71.50
2019-04-16T22:31:15.227Z,75.30
2019-04-16T22:33:42.639Z,74.40
2019-04-16T22:36:10.126Z,76.00
2019-04-16T22:38:38.374Z,73.00
2019-04-16T22:41:17.019Z,72.30
2019-04-16T22:44:09.942Z,73.50
2019-04-16T22:46:40.523Z,74.00
2019-04-16T22:49:07.917Z,72.80
2019-04-16T22:51:35.451Z,75.30
2019-04-16T22:54:02.944Z,72.90
2019-04-16T22:56:52.877Z,74.20
2019-04-16T22:59:20.282Z,75.00
2019-04-16T23:01:48.146Z,73.80
2019-04-16T23:04:15.854Z,75.60
2019-04-16T23:06:43.242Z,74.70
2019-04-16T23:09:16.778Z,74.80
2019-04-16T23:11:39.998Z,80.00
2019-04-16T23:14:07.394Z,74.40
2019-04-16T23:16:34.798Z,78.90
2019-04-16T23:19:02.256Z,76.90
2019-04-16T23:21:29.674Z,75.70
2019-04-16T23:23:57.267Z,77.80
2019-04-16T23:26:24.722Z,76.20
2019-04-16T23:28:52.109Z,77.20
2019-04-16T23:31:19.681Z,80.30
2019-04-16T23:33:48.903Z,77.80
2019-04-16T23:36:16.721Z,76.30
2019-04-16T23:38:44.213Z,79.40
2019-04-16T23:41:15.330Z,76.10
2019-04-16T23:44:02.854Z,77.30
2019-04-16T23:46:55.782Z,73.80
2019-04-16T23:49:41.414Z,74.70
2019-04-16T23:52:15.287Z,76.10
2019-04-16T23:54:52.621Z,78.00
2019-04-16T23:57:35.811Z,80.10
